sensor_id;sensor_type;location;lat;lon;timestamp;P1;durP1;ratioP1;P2;durP2;ratioP2
69953;SDS011;57276;51.364;12.376;2022-12-10T00:03:18;24.15;;;9.38;;
69953;SDS011;57276;51.364;12.376;2022-12-10T00:09:20;23.97;;;9.00;;
69953;SDS011;57276;51.364;12.376;2022-12-10T00:15:21;26.25;;;10.18;;
69953;SDS011;57276;51.364;12.376;2022-12-10T00:21:24;26.77;;;9.77;;
69953;SDS011;57276;51.364;12.376;2022-12-10T00:27:26;27.40;;;8.67;;
69953;SDS011;57276;51.364;12.376;2022-12-10T00:33:29;26.00;;;10.00;;
69953;SDS011;57276;51.364;12.376;2022-12-10T00:39:30;26.40;;;8.83;;
69953;SDS011;57276;51.364;12.376;2022-12-10T00:45:32;30.90;;;10.48;;
69953;SDS011;57276;51.364;12.376;2022-12-10T00:51:34;26.05;;;10.05;;
69953;SDS011;57276;51.364;12.376;2022-12-10T00:57:35;27.87;;;9.70;;
69953;SDS011;57276;51.364;12.376;2022-12-10T01:03:37;28.23;;;10.02;;
69953;SDS011;57276;51.364;12.376;2022-12-10T01:09:39;28.90;;;10.63;;
69953;SDS011;57276;51.364;12.376;2022-12-10T01:15:40;28.23;;;10.00;;
69953;SDS011;57276;51.364;12.376;2022-12-10T01:21:42;29.20;;;10.45;;
69953;SDS011;57276;51.364;12.376;2022-12-10T01:27:43;33.03;;;10.07;;
69953;SDS011;57276;51.364;12.376;2022-12-10T01:33:45;27.77;;;11.13;;
69953;SDS011;57276;51.364;12.376;2022-12-10T01:39:47;29.27;;;9.87;;
69953;SDS011;57276;51.364;12.376;2022-12-10T01:45:48;27.60;;;9.55;;
69953;SDS011;57276;51.364;12.376;2022-12-10T01:51:52;28.08;;;9.85;;
69953;SDS011;57276;51.364;12.376;2022-12-10T01:57:54;29.17;;;9.50;;
69953;SDS011;57276;51.364;12.376;2022-12-10T02:04:01;23.45;;;8.82;;
69953;SDS011;57276;51.364;12.376;2022-12-10T02:10:10;27.77;;;9.33;;
69953;SDS011;57276;51.364;12.376;2022-12-10T02:16:21;24.17;;;9.15;;
69953;SDS011;57276;51.364;12.376;2022-12-10T02:22:26;20.45;;;8.00;;
69953;SDS011;57276;51.364;12.376;2022-12-10T02:34:47;21.85;;;7.47;;
69953;SDS011;57276;51.364;12.376;2022-12-10T02:40:53;21.40;;;8.20;;
69953;SDS011;57276;51.364;12.376;2022-12-10T02:46:58;24.70;;;8.93;;
69953;SDS011;57276;51.364;12.376;2022-12-10T02:53:05;23.38;;;8.70;;
69953;SDS011;57276;51.364;12.376;2022-12-10T03:11:59;22.93;;;8.87;;
69953;SDS011;57276;51.364;12.376;2022-12-10T03:18:03;19.65;;;7.70;;
69953;SDS011;57276;51.364;12.376;2022-12-10T03:24:05;23.17;;;8.55;;
69953;SDS011;57276;51.364;12.376;2022-12-10T03:30:07;21.90;;;7.73;;
69953;SDS011;57276;51.364;12.376;2022-12-10T03:36:10;22.85;;;8.88;;
69953;SDS011;57276;51.364;12.376;2022-12-10T03:42:12;22.77;;;8.73;;
69953;SDS011;57276;51.364;12.376;2022-12-10T03:48:13;24.13;;;9.30;;
69953;SDS011;57276;51.364;12.376;2022-12-10T03:54:15;23.52;;;8.60;;
69953;SDS011;57276;51.364;12.376;2022-12-10T04:00:17;28.77;;;9.53;;
69953;SDS011;57276;51.364;12.376;2022-12-10T04:06:18;24.35;;;9.02;;
69953;SDS011;57276;51.364;12.376;2022-12-10T04:12:20;26.53;;;9.57;;
69953;SDS011;57276;51.364;12.376;2022-12-10T04:18:21;29.48;;;9.90;;
69953;SDS011;57276;51.364;12.376;2022-12-10T04:24:24;26.55;;;8.90;;
69953;SDS011;57276;51.364;12.376;2022-12-10T04:30:44;29.77;;;10.13;;
69953;SDS011;57276;51.364;12.376;2022-12-10T04:36:46;29.80;;;11.38;;
69953;SDS011;57276;51.364;12.376;2022-12-10T04:42:48;32.63;;;10.37;;
69953;SDS011;57276;51.364;12.376;2022-12-10T04:48:49;32.03;;;10.23;;
69953;SDS011;57276;51.364;12.376;2022-12-10T04:54:51;24.73;;;9.13;;
69953;SDS011;57276;51.364;12.376;2022-12-10T05:00:52;29.77;;;10.87;;
69953;SDS011;57276;51.364;12.376;2022-12-10T05:06:54;23.40;;;9.25;;
69953;SDS011;57276;51.364;12.376;2022-12-10T05:12:55;30.30;;;10.30;;
69953;SDS011;57276;51.364;12.376;2022-12-10T05:18:57;31.30;;;10.05;;
69953;SDS011;57276;51.364;12.376;2022-12-10T05:24:59;31.92;;;10.23;;
69953;SDS011;57276;51.364;12.376;2022-12-10T05:31:01;25.80;;;9.77;;
69953;SDS011;57276;51.364;12.376;2022-12-10T05:37:03;29.52;;;10.90;;
69953;SDS011;57276;51.364;12.376;2022-12-10T05:43:04;31.73;;;11.50;;
69953;SDS011;57276;51.364;12.376;2022-12-10T05:49:06;30.15;;;10.27;;
69953;SDS011;57276;51.364;12.376;2022-12-10T05:55:08;29.45;;;9.98;;
69953;SDS011;57276;51.364;12.376;2022-12-10T06:01:14;29.63;;;10.30;;
69953;SDS011;57276;51.364;12.376;2022-12-10T06:07:15;34.65;;;11.65;;
69953;SDS011;57276;51.364;12.376;2022-12-10T06:13:17;26.23;;;9.93;;
69953;SDS011;57276;51.364;12.376;2022-12-10T06:19:18;33.95;;;11.25;;
69953;SDS011;57276;51.364;12.376;2022-12-10T06:25:20;33.15;;;11.13;;
69953;SDS011;57276;51.364;12.376;2022-12-10T06:31:22;30.10;;;10.50;;
69953;SDS011;57276;51.364;12.376;2022-12-10T06:37:24;32.22;;;10.60;;
69953;SDS011;57276;51.364;12.376;2022-12-10T06:43:28;27.90;;;9.73;;
69953;SDS011;57276;51.364;12.376;2022-12-10T06:49:32;27.30;;;9.98;;
69953;SDS011;57276;51.364;12.376;2022-12-10T06:55:33;29.15;;;10.05;;
69953;SDS011;57276;51.364;12.376;2022-12-10T07:01:37;27.03;;;8.93;;
69953;SDS011;57276;51.364;12.376;2022-12-10T07:07:39;27.73;;;9.90;;
69953;SDS011;57276;51.364;12.376;2022-12-10T07:13:41;34.13;;;10.73;;
69953;SDS011;57276;51.364;12.376;2022-12-10T07:19:43;30.25;;;9.70;;
69953;SDS011;57276;51.364;12.376;2022-12-10T07:25:45;29.23;;;9.85;;
69953;SDS011;57276;51.364;12.376;2022-12-10T07:31:47;32.03;;;9.53;;
69953;SDS011;57276;51.364;12.376;2022-12-10T07:37:49;32.10;;;10.80;;
69953;SDS011;57276;51.364;12.376;2022-12-10T07:43:51;29.70;;;9.40;;
69953;SDS011;57276;51.364;12.376;2022-12-10T07:49:53;28.70;;;9.82;;
69953;SDS011;57276;51.364;12.376;2022-12-10T07:55:55;31.73;;;9.68;;
69953;SDS011;57276;51.364;12.376;2022-12-10T08:01:56;34.03;;;11.00;;
69953;SDS011;57276;51.364;12.376;2022-12-10T08:07:58;26.00;;;10.10;;
69953;SDS011;57276;51.364;12.376;2022-12-10T08:14:07;31.43;;;10.10;;
69953;SDS011;57276;51.364;12.376;2022-12-10T08:20:08;29.75;;;10.07;;
69953;SDS011;57276;51.364;12.376;2022-12-10T08:26:12;32.05;;;9.32;;
69953;SDS011;57276;51.364;12.376;2022-12-10T08:32:14;28.70;;;10.10;;
69953;SDS011;57276;51.364;12.376;2022-12-10T08:38:15;29.73;;;9.07;;
69953;SDS011;57276;51.364;12.376;2022-12-10T08:44:17;33.33;;;9.83;;
69953;SDS011;57276;51.364;12.376;2022-12-10T08:50:18;28.17;;;9.88;;
69953;SDS011;57276;51.364;12.376;2022-12-10T08:56:20;25.92;;;9.75;;
69953;SDS011;57276;51.364;12.376;2022-12-10T09:02:22;28.50;;;10.30;;
69953;SDS011;57276;51.364;12.376;2022-12-10T09:08:23;29.73;;;10.38;;
69953;SDS011;57276;51.364;12.376;2022-12-10T09:14:25;30.60;;;10.43;;
69953;SDS011;57276;51.364;12.376;2022-12-10T09:20:27;32.03;;;10.63;;
69953;SDS011;57276;51.364;12.376;2022-12-10T09:26:28;29.25;;;10.85;;
69953;SDS011;57276;51.364;12.376;2022-12-10T09:32:30;27.83;;;9.37;;
69953;SDS011;57276;51.364;12.376;2022-12-10T09:38:32;33.83;;;11.13;;
69953;SDS011;57276;51.364;12.376;2022-12-10T09:50:55;31.17;;;10.50;;
69953;SDS011;57276;51.364;12.376;2022-12-10T09:56:59;25.85;;;9.90;;
69953;SDS011;57276;51.364;12.376;2022-12-10T10:03:01;23.83;;;8.90;;
69953;SDS011;57276;51.364;12.376;2022-12-10T10:09:03;27.65;;;9.63;;
69953;SDS011;57276;51.364;12.376;2022-12-10T10:15:12;23.27;;;9.50;;
69953;SDS011;57276;51.364;12.376;2022-12-10T10:21:22;28.95;;;9.88;;
69953;SDS011;57276;51.364;12.376;2022-12-10T10:27:26;24.95;;;8.40;;
69953;SDS011;57276;51.364;12.376;2022-12-10T10:33:29;26.60;;;9.13;;
69953;SDS011;57276;51.364;12.376;2022-12-10T10:39:31;25.08;;;10.15;;
69953;SDS011;57276;51.364;12.376;2022-12-10T10:45:34;23.67;;;9.10;;
69953;SDS011;57276;51.364;12.376;2022-12-10T10:51:36;22.27;;;8.65;;
69953;SDS011;57276;51.364;12.376;2022-12-10T10:57:42;24.00;;;8.52;;
69953;SDS011;57276;51.364;12.376;2022-12-10T11:03:45;22.00;;;9.10;;
69953;SDS011;57276;51.364;12.376;2022-12-10T11:09:47;22.58;;;7.63;;
69953;SDS011;57276;51.364;12.376;2022-12-10T11:15:57;25.10;;;8.97;;
69953;SDS011;57276;51.364;12.376;2022-12-10T11:22:14;19.30;;;7.70;;
69953;SDS011;57276;51.364;12.376;2022-12-10T11:35:08;26.03;;;9.13;;
69953;SDS011;57276;51.364;12.376;2022-12-10T11:40:50;26.42;;;9.13;;
69953;SDS011;57276;51.364;12.376;2022-12-10T11:53:15;25.20;;;9.05;;
69953;SDS011;57276;51.364;12.376;2022-12-10T11:59:28;25.63;;;9.65;;
69953;SDS011;57276;51.364;12.376;2022-12-10T12:12:16;21.95;;;7.93;;
69953;SDS011;57276;51.364;12.376;2022-12-10T12:24:40;23.98;;;8.57;;
69953;SDS011;57276;51.364;12.376;2022-12-10T12:30:43;23.90;;;8.82;;
69953;SDS011;57276;51.364;12.376;2022-12-10T12:36:46;22.63;;;9.17;;
69953;SDS011;57276;51.364;12.376;2022-12-10T12:42:53;18.75;;;8.35;;
69953;SDS011;57276;51.364;12.376;2022-12-10T12:48:57;25.93;;;9.57;;
69953;SDS011;57276;51.364;12.376;2022-12-10T12:55:01;24.08;;;9.10;;
69953;SDS011;57276;51.364;12.376;2022-12-10T13:01:06;21.88;;;9.15;;
69953;SDS011;57276;51.364;12.376;2022-12-10T13:19:31;31.50;;;11.90;;
69953;SDS011;57276;51.364;12.376;2022-12-10T13:26:16;29.02;;;11.55;;
69953;SDS011;57276;51.364;12.376;2022-12-10T13:32:02;29.80;;;10.05;;
69953;SDS011;57276;51.364;12.376;2022-12-10T13:38:05;25.47;;;10.37;;
69953;SDS011;57276;51.364;12.376;2022-12-10T13:45:03;31.23;;;11.07;;
69953;SDS011;57276;51.364;12.376;2022-12-10T13:50:47;30.17;;;11.57;;
69953;SDS011;57276;51.364;12.376;2022-12-10T13:57:10;32.47;;;13.07;;
69953;SDS011;57276;51.364;12.376;2022-12-10T14:03:26;32.92;;;12.48;;
69953;SDS011;57276;51.364;12.376;2022-12-10T14:09:30;30.17;;;11.47;;
69953;SDS011;57276;51.364;12.376;2022-12-10T14:15:35;30.65;;;11.35;;
69953;SDS011;57276;51.364;12.376;2022-12-10T14:21:39;32.77;;;12.27;;
69953;SDS011;57276;51.364;12.376;2022-12-10T14:27:43;30.67;;;11.18;;
69953;SDS011;57276;51.364;12.376;2022-12-10T14:33:45;24.15;;;9.60;;
69953;SDS011;57276;51.364;12.376;2022-12-10T14:39:47;26.67;;;10.80;;
69953;SDS011;57276;51.364;12.376;2022-12-10T14:45:51;25.20;;;10.65;;
69953;SDS011;57276;51.364;12.376;2022-12-10T14:51:55;25.67;;;10.30;;
69953;SDS011;57276;51.364;12.376;2022-12-10T14:57:58;23.13;;;10.32;;
69953;SDS011;57276;51.364;12.376;2022-12-10T15:04:01;25.95;;;10.30;;
69953;SDS011;57276;51.364;12.376;2022-12-10T15:10:06;25.33;;;9.93;;
69953;SDS011;57276;51.364;12.376;2022-12-10T15:16:58;23.45;;;9.48;;
69953;SDS011;57276;51.364;12.376;2022-12-10T15:22:40;25.07;;;10.53;;
69953;SDS011;57276;51.364;12.376;2022-12-10T15:28:42;27.83;;;10.85;;
69953;SDS011;57276;51.364;12.376;2022-12-10T15:34:45;26.50;;;10.25;;
69953;SDS011;57276;51.364;12.376;2022-12-10T15:40:47;25.37;;;10.63;;
69953;SDS011;57276;51.364;12.376;2022-12-10T15:46:49;31.05;;;10.70;;
69953;SDS011;57276;51.364;12.376;2022-12-10T15:52:52;26.43;;;10.03;;
69953;SDS011;57276;51.364;12.376;2022-12-10T15:58:54;25.20;;;10.60;;
69953;SDS011;57276;51.364;12.376;2022-12-10T16:04:55;25.35;;;9.48;;
69953;SDS011;57276;51.364;12.376;2022-12-10T16:10:59;28.03;;;10.47;;
69953;SDS011;57276;51.364;12.376;2022-12-10T16:17:01;27.00;;;11.45;;
69953;SDS011;57276;51.364;12.376;2022-12-10T16:23:03;29.80;;;11.63;;
69953;SDS011;57276;51.364;12.376;2022-12-10T16:29:07;25.85;;;9.70;;
69953;SDS011;57276;51.364;12.376;2022-12-10T16:35:09;28.13;;;10.60;;
69953;SDS011;57276;51.364;12.376;2022-12-10T16:41:14;25.10;;;10.70;;
69953;SDS011;57276;51.364;12.376;2022-12-10T16:47:16;27.50;;;10.43;;
69953;SDS011;57276;51.364;12.376;2022-12-10T16:53:19;28.10;;;12.23;;
69953;SDS011;57276;51.364;12.376;2022-12-10T16:59:22;28.02;;;11.60;;
69953;SDS011;57276;51.364;12.376;2022-12-10T17:11:28;30.70;;;11.13;;
69953;SDS011;57276;51.364;12.376;2022-12-10T17:17:47;27.15;;;11.05;;
69953;SDS011;57276;51.364;12.376;2022-12-10T17:23:48;24.77;;;10.53;;
69953;SDS011;57276;51.364;12.376;2022-12-10T17:29:50;23.73;;;9.75;;
69953;SDS011;57276;51.364;12.376;2022-12-10T17:35:55;23.38;;;9.95;;
69953;SDS011;57276;51.364;12.376;2022-12-10T17:41:56;25.33;;;10.23;;
69953;SDS011;57276;51.364;12.376;2022-12-10T17:47:58;26.95;;;10.13;;
69953;SDS011;57276;51.364;12.376;2022-12-10T17:54:00;27.37;;;11.47;;
69953;SDS011;57276;51.364;12.376;2022-12-10T18:00:04;24.42;;;9.80;;
69953;SDS011;57276;51.364;12.376;2022-12-10T18:06:13;27.75;;;10.95;;
69953;SDS011;57276;51.364;12.376;2022-12-10T18:12:16;24.53;;;10.33;;
69953;SDS011;57276;51.364;12.376;2022-12-10T18:18:17;27.02;;;10.57;;
69953;SDS011;57276;51.364;12.376;2022-12-10T18:24:19;29.50;;;10.83;;
69953;SDS011;57276;51.364;12.376;2022-12-10T18:30:21;25.77;;;10.25;;
69953;SDS011;57276;51.364;12.376;2022-12-10T18:36:24;23.98;;;9.80;;
69953;SDS011;57276;51.364;12.376;2022-12-10T18:42:26;24.27;;;11.07;;
69953;SDS011;57276;51.364;12.376;2022-12-10T18:48:28;25.80;;;10.63;;
69953;SDS011;57276;51.364;12.376;2022-12-10T18:54:29;27.23;;;11.27;;
69953;SDS011;57276;51.364;12.376;2022-12-10T19:00:31;25.90;;;10.95;;
69953;SDS011;57276;51.364;12.376;2022-12-10T19:06:35;29.15;;;13.07;;
69953;SDS011;57276;51.364;12.376;2022-12-10T19:12:38;25.63;;;10.03;;
69953;SDS011;57276;51.364;12.376;2022-12-10T19:18:40;27.15;;;11.15;;
69953;SDS011;57276;51.364;12.376;2022-12-10T19:24:42;26.23;;;11.67;;
69953;SDS011;57276;51.364;12.376;2022-12-10T19:30:43;27.40;;;11.88;;
69953;SDS011;57276;51.364;12.376;2022-12-10T19:36:45;29.08;;;11.38;;
69953;SDS011;57276;51.364;12.376;2022-12-10T19:42:47;42.73;;;12.50;;
69953;SDS011;57276;51.364;12.376;2022-12-10T19:48:49;28.83;;;12.50;;
69953;SDS011;57276;51.364;12.376;2022-12-10T19:54:51;30.23;;;12.07;;
69953;SDS011;57276;51.364;12.376;2022-12-10T20:00:53;28.95;;;11.02;;
69953;SDS011;57276;51.364;12.376;2022-12-10T20:06:54;29.75;;;12.32;;
69953;SDS011;57276;51.364;12.376;2022-12-10T20:12:56;27.03;;;10.67;;
69953;SDS011;57276;51.364;12.376;2022-12-10T20:18:58;29.17;;;12.50;;
69953;SDS011;57276;51.364;12.376;2022-12-10T20:24:59;27.90;;;12.23;;
69953;SDS011;57276;51.364;12.376;2022-12-10T20:31:01;27.65;;;11.50;;
69953;SDS011;57276;51.364;12.376;2022-12-10T20:37:03;28.60;;;11.05;;
69953;SDS011;57276;51.364;12.376;2022-12-10T20:43:05;27.67;;;11.20;;
69953;SDS011;57276;51.364;12.376;2022-12-10T20:49:08;31.40;;;11.52;;
69953;SDS011;57276;51.364;12.376;2022-12-10T20:55:10;26.57;;;10.33;;
69953;SDS011;57276;51.364;12.376;2022-12-10T21:01:13;29.10;;;11.35;;
69953;SDS011;57276;51.364;12.376;2022-12-10T21:07:14;25.88;;;10.23;;
69953;SDS011;57276;51.364;12.376;2022-12-10T21:13:16;26.40;;;10.70;;
69953;SDS011;57276;51.364;12.376;2022-12-10T21:19:18;30.25;;;10.95;;
69953;SDS011;57276;51.364;12.376;2022-12-10T21:25:20;24.67;;;10.40;;
69953;SDS011;57276;51.364;12.376;2022-12-10T21:31:23;25.20;;;10.80;;
69953;SDS011;57276;51.364;12.376;2022-12-10T21:37:25;27.85;;;10.93;;
69953;SDS011;57276;51.364;12.376;2022-12-10T21:43:26;25.93;;;10.57;;
69953;SDS011;57276;51.364;12.376;2022-12-10T21:49:29;22.80;;;10.18;;
69953;SDS011;57276;51.364;12.376;2022-12-10T21:55:30;21.70;;;9.80;;
69953;SDS011;57276;51.364;12.376;2022-12-10T22:01:32;17.98;;;8.18;;
69953;SDS011;57276;51.364;12.376;2022-12-10T22:07:34;19.60;;;7.70;;
69953;SDS011;57276;51.364;12.376;2022-12-10T22:13:36;17.00;;;7.43;;
69953;SDS011;57276;51.364;12.376;2022-12-10T22:19:37;19.52;;;7.95;;
69953;SDS011;57276;51.364;12.376;2022-12-10T22:25:39;19.00;;;7.73;;
69953;SDS011;57276;51.364;12.376;2022-12-10T22:31:41;16.60;;;7.90;;
69953;SDS011;57276;51.364;12.376;2022-12-10T22:37:43;17.23;;;7.53;;
69953;SDS011;57276;51.364;12.376;2022-12-10T22:43:44;17.40;;;8.27;;
69953;SDS011;57276;51.364;12.376;2022-12-10T22:49:51;16.73;;;7.63;;
69953;SDS011;57276;51.364;12.376;2022-12-10T22:56:03;19.57;;;6.80;;
69953;SDS011;57276;51.364;12.376;2022-12-10T23:02:05;16.65;;;7.10;;
69953;SDS011;57276;51.364;12.376;2022-12-10T23:08:06;18.30;;;6.95;;
69953;SDS011;57276;51.364;12.376;2022-12-10T23:14:08;14.90;;;6.10;;
69953;SDS011;57276;51.364;12.376;2022-12-10T23:20:10;14.32;;;6.50;;
69953;SDS011;57276;51.364;12.376;2022-12-10T23:26:12;15.53;;;5.97;;
69953;SDS011;57276;51.364;12.376;2022-12-10T23:32:13;15.48;;;5.63;;
69953;SDS011;57276;51.364;12.376;2022-12-10T23:38:15;13.55;;;5.65;;
69953;SDS011;57276;51.364;12.376;2022-12-10T23:44:16;12.80;;;5.20;;
69953;SDS011;57276;51.364;12.376;2022-12-10T23:50:18;11.60;;;5.40;;
69953;SDS011;57276;51.364;12.376;2022-12-10T23:56:20;15.03;;;5.03;;
